TAP201 LPPT-KEWR
Flight info
| Callsign | TAP201 |
|---|---|
| Flight time | N/A |
| Altitude | 34000 |
| Route | ELNUB DCT ARMED/M078F340 DCT 4530N02000W 4630N03000W 46N040W 44N050W/M078F360 DCT JEBBY DCT CARAC/N0459F360 N30B KANNI DCT COPLY DCT BOS DCT NELIE FLOSI4 |
| Aircraft | A21N/M-SDE2E3FGHIRWXY/LB1 |
Departure
| Time | N/A |
|---|---|
| Airport | Lisbon Humberto Delgado Airport (LPPT) |
Arrival
| Time | 2026-04-24 20:58 |
|---|---|
| Airport | Newark Liberty International Airport (KEWR) |
| Time | Latitude | Longitude | Altitude | Speed | Heading |
|---|---|---|---|---|---|
| 2026-04-24 20:34 | 41.69350 | -73.72678 | 27937 ft | 345 kts | 263° |
| 2026-04-24 20:35 | 41.68606 | -73.75722 | 27583 ft | 341 kts | 263° |
| 2026-04-24 20:35 | 41.67872 | -73.78714 | 27215 ft | 336 kts | 263° |
| 2026-04-24 20:35 | 41.67149 | -73.81668 | 26823 ft | 333 kts | 263° |
| 2026-04-24 20:35 | 41.66429 | -73.84605 | 26418 ft | 330 kts | 263° |
| 2026-04-24 20:36 | 41.65717 | -73.87511 | 26025 ft | 328 kts | 263° |
| 2026-04-24 20:36 | 41.65010 | -73.90394 | 25655 ft | 324 kts | 263° |
| 2026-04-24 20:36 | 41.64309 | -73.93245 | 25296 ft | 321 kts | 263° |
| 2026-04-24 20:36 | 41.63622 | -73.96035 | 24941 ft | 319 kts | 263° |
| 2026-04-24 20:37 | 41.62922 | -73.98882 | 24529 ft | 317 kts | 262° |
| 2026-04-24 20:37 | 41.62242 | -74.01640 | 24141 ft | 315 kts | 262° |
| 2026-04-24 20:37 | 41.61556 | -74.04419 | 23767 ft | 314 kts | 262° |
| 2026-04-24 20:37 | 41.60874 | -74.07172 | 23392 ft | 312 kts | 262° |
| 2026-04-24 20:38 | 41.60196 | -74.09916 | 22971 ft | 310 kts | 262° |
| 2026-04-24 20:38 | 41.59520 | -74.12636 | 22573 ft | 307 kts | 262° |
| 2026-04-24 20:38 | 41.58852 | -74.15322 | 22199 ft | 304 kts | 262° |
| 2026-04-24 20:38 | 41.58190 | -74.17990 | 21824 ft | 301 kts | 262° |
| 2026-04-24 20:39 | 41.57532 | -74.20635 | 21455 ft | 298 kts | 262° |
| 2026-04-24 20:39 | 41.56880 | -74.23251 | 21092 ft | 296 kts | 262° |
| 2026-04-24 20:39 | 41.56230 | -74.25858 | 20742 ft | 300 kts | 262° |
| 2026-04-24 20:39 | 41.55562 | -74.28569 | 20441 ft | 308 kts | 261° |
| 2026-04-24 20:40 | 41.54778 | -74.31238 | 20092 ft | 314 kts | 251° |
| 2026-04-24 20:40 | 41.53354 | -74.33560 | 19729 ft | 335 kts | 228° |
| 2026-04-24 20:40 | 41.51246 | -74.35051 | 19352 ft | 353 kts | 207° |
| 2026-04-24 20:40 | 41.48878 | -74.36018 | 18970 ft | 357 kts | 204° |
| 2026-04-24 20:41 | 41.46543 | -74.36919 | 18574 ft | 358 kts | 205° |
| 2026-04-24 20:41 | 41.44158 | -74.37880 | 18178 ft | 358 kts | 205° |
| 2026-04-24 20:41 | 41.41771 | -74.38875 | 17741 ft | 359 kts | 206° |
| 2026-04-24 20:41 | 41.39389 | -74.39886 | 17324 ft | 360 kts | 206° |
| 2026-04-24 20:42 | 41.37808 | -74.40562 | 17038 ft | 360 kts | 206° |
| 2026-04-24 20:42 | 41.35414 | -74.41589 | 16622 ft | 361 kts | 206° |
| 2026-04-24 20:42 | 41.33025 | -74.42615 | 16236 ft | 361 kts | 206° |
| 2026-04-24 20:42 | 41.30634 | -74.43639 | 15860 ft | 360 kts | 206° |
| 2026-04-24 20:43 | 41.28269 | -74.44651 | 15488 ft | 355 kts | 206° |
| 2026-04-24 20:43 | 41.25173 | -74.45973 | 14991 ft | 349 kts | 206° |
| 2026-04-24 20:43 | 41.23622 | -74.46636 | 14742 ft | 346 kts | 206° |
| 2026-04-24 20:43 | 41.21338 | -74.47614 | 14366 ft | 343 kts | 206° |
| 2026-04-24 20:44 | 41.19077 | -74.48580 | 14004 ft | 339 kts | 206° |
| 2026-04-24 20:44 | 41.16844 | -74.49533 | 13644 ft | 336 kts | 206° |
| 2026-04-24 20:44 | 41.14629 | -74.50479 | 13249 ft | 332 kts | 206° |
| 2026-04-24 20:44 | 41.12442 | -74.51412 | 12879 ft | 328 kts | 206° |
| 2026-04-24 20:45 | 41.10284 | -74.52334 | 12525 ft | 325 kts | 206° |
| 2026-04-24 20:45 | 41.08136 | -74.53250 | 12189 ft | 324 kts | 206° |
| 2026-04-24 20:45 | 41.05923 | -74.53964 | 11836 ft | 333 kts | 194° |
| 2026-04-24 20:45 | 41.03602 | -74.54216 | 11479 ft | 336 kts | 191° |
| 2026-04-24 20:46 | 41.01261 | -74.54402 | 11118 ft | 337 kts | 190° |
| 2026-04-24 20:46 | 40.98917 | -74.54594 | 10743 ft | 338 kts | 191° |
| 2026-04-24 20:46 | 40.96593 | -74.54796 | 10371 ft | 339 kts | 191° |
| 2026-04-24 20:46 | 40.94245 | -74.55006 | 10022 ft | 339 kts | 190° |
| 2026-04-24 20:47 | 40.91914 | -74.55214 | 9836 ft | 329 kts | 191° |
| 2026-04-24 20:47 | 40.89669 | -74.55414 | 9603 ft | 321 kts | 191° |
| 2026-04-24 20:47 | 40.87447 | -74.55619 | 9202 ft | 320 kts | 191° |
| 2026-04-24 20:47 | 40.85242 | -74.55823 | 8851 ft | 316 kts | 191° |
| 2026-04-24 20:48 | 40.83053 | -74.56001 | 8498 ft | 315 kts | 187° |
| 2026-04-24 20:48 | 40.80872 | -74.55943 | 8187 ft | 313 kts | 183° |
| 2026-04-24 20:48 | 40.78702 | -74.55824 | 7837 ft | 310 kts | 182° |
| 2026-04-24 20:48 | 40.76603 | -74.55722 | 7531 ft | 306 kts | 182° |
| 2026-04-24 20:49 | 40.74487 | -74.55621 | 7222 ft | 302 kts | 182° |
| 2026-04-24 20:49 | 40.72405 | -74.55517 | 6913 ft | 297 kts | 181° |
| 2026-04-24 20:49 | 40.70347 | -74.55411 | 6557 ft | 294 kts | 181° |
| 2026-04-24 20:49 | 40.68311 | -74.55305 | 6227 ft | 292 kts | 181° |
| 2026-04-24 20:50 | 40.66291 | -74.55200 | 5897 ft | 290 kts | 181° |
| 2026-04-24 20:50 | 40.64284 | -74.55049 | 5572 ft | 288 kts | 173° |
| 2026-04-24 20:50 | 40.62459 | -74.54085 | 5233 ft | 289 kts | 145° |
| 2026-04-24 20:50 | 40.61118 | -74.52154 | 4901 ft | 286 kts | 119° |
| 2026-04-24 20:51 | 40.60511 | -74.49707 | 4564 ft | 282 kts | 94° |
| 2026-04-24 20:51 | 40.60578 | -74.47152 | 4258 ft | 277 kts | 85° |
| 2026-04-24 20:51 | 40.60252 | -74.44685 | 3984 ft | 276 kts | 115° |
| 2026-04-24 20:51 | 40.59257 | -74.42538 | 3953 ft | 275 kts | 125° |
| 2026-04-24 20:52 | 40.58166 | -74.40479 | 3965 ft | 275 kts | 126° |
| 2026-04-24 20:52 | 40.57077 | -74.38415 | 3963 ft | 273 kts | 125° |
| 2026-04-24 20:52 | 40.56005 | -74.36356 | 3607 ft | 272 kts | 125° |
| 2026-04-24 20:52 | 40.54956 | -74.34329 | 3267 ft | 266 kts | 125° |
| 2026-04-24 20:53 | 40.53917 | -74.32316 | 2886 ft | 265 kts | 125° |
| 2026-04-24 20:53 | 40.52904 | -74.30339 | 2798 ft | 255 kts | 123° |
| 2026-04-24 20:53 | 40.52282 | -74.28252 | 2765 ft | 241 kts | 93° |
| 2026-04-24 20:53 | 40.52634 | -74.26206 | 2796 ft | 223 kts | 56° |
| 2026-04-24 20:54 | 40.53738 | -74.25008 | 2822 ft | 196 kts | 16° |
| 2026-04-24 20:54 | 40.55010 | -74.24740 | 2734 ft | 178 kts | 4° |
| 2026-04-24 20:54 | 40.56191 | -74.24449 | 2584 ft | 171 kts | 12° |
| 2026-04-24 20:54 | 40.57303 | -74.23954 | 2364 ft | 166 kts | 19° |
| 2026-04-24 20:55 | 40.58314 | -74.23375 | 2136 ft | 146 kts | 23° |
| 2026-04-24 20:55 | 40.59189 | -74.22855 | 1920 ft | 136 kts | 24° |
| 2026-04-24 20:55 | 40.60039 | -74.22323 | 1745 ft | 135 kts | 25° |
| 2026-04-24 20:55 | 40.60886 | -74.21787 | 1573 ft | 135 kts | 26° |
| 2026-04-24 20:56 | 40.61727 | -74.21253 | 1399 ft | 134 kts | 26° |
| 2026-04-24 20:56 | 40.62566 | -74.20720 | 1231 ft | 134 kts | 26° |
| 2026-04-24 20:56 | 40.63407 | -74.20186 | 1053 ft | 134 kts | 27° |
| 2026-04-24 20:56 | 40.64246 | -74.19652 | 862 ft | 135 kts | 28° |
| 2026-04-24 20:57 | 40.65097 | -74.19110 | 697 ft | 136 kts | 29° |
| 2026-04-24 20:57 | 40.65955 | -74.18573 | 517 ft | 137 kts | 29° |
| 2026-04-24 20:57 | 40.66819 | -74.18043 | 302 ft | 137 kts | 31° |
| 2026-04-24 20:57 | 40.67667 | -74.17490 | 137 ft | 138 kts | 31° |
| 2026-04-24 20:58 | 40.68532 | -74.16938 | 43 ft | 132 kts | 30° |
| 2026-04-24 20:58 | 40.69267 | -74.16465 | 29 ft | 100 kts | 24° |
| 2026-04-24 20:58 | 40.69661 | -74.16215 | 27 ft | 11 kts | 25° |
| 2026-04-24 20:58 | 40.69733 | -74.16171 | 26 ft | 12 kts | 20° |
| 2026-04-24 20:59 | 40.69807 | -74.16221 | 26 ft | 14 kts | 303° |
| 2026-04-24 20:59 | 40.69855 | -74.16348 | 26 ft | 16 kts | 296° |
| 2026-04-24 20:59 | 40.69879 | -74.16413 | 27 ft | 7 kts | 296° |
| 2026-04-24 20:59 | 40.69902 | -74.16480 | 25 ft | 9 kts | 290° |
| 2026-04-24 21:00 | 40.69905 | -74.16573 | 26 ft | 12 kts | 243° |
| 2026-04-24 21:00 | 40.69834 | -74.16646 | 26 ft | 14 kts | 204° |
| 2026-04-24 21:00 | 40.69737 | -74.16707 | 27 ft | 16 kts | 206° |
| 2026-04-24 21:00 | 40.69627 | -74.16777 | 27 ft | 19 kts | 205° |
| 2026-04-24 21:01 | 40.69505 | -74.16854 | 28 ft | 20 kts | 205° |
| 2026-04-24 21:01 | 40.69371 | -74.16937 | 28 ft | 22 kts | 205° |
| 2026-04-24 21:01 | 40.69257 | -74.17015 | 27 ft | 17 kts | 208° |
| 2026-04-24 21:01 | 40.69154 | -74.17082 | 27 ft | 10 kts | 200° |
| 2026-04-24 21:02 | 40.69128 | -74.17164 | 27 ft | 13 kts | 301° |
| 2026-04-24 21:02 | 40.69156 | -74.17213 | 27 ft | 3 kts | 314° |
| 2026-04-24 21:03 | 40.69162 | -74.17222 | 27 ft | 3 kts | 315° |
| 2026-04-24 21:03 | 40.69176 | -74.17254 | 27 ft | 5 kts | 298° |
| 2026-04-24 21:03 | 40.69185 | -74.17297 | 27 ft | 5 kts | 272° |
| 2026-04-24 21:03 | 40.69187 | -74.17327 | 27 ft | 1 kts | 276° |
| 2026-04-24 21:04 | 40.69187 | -74.17333 | 27 ft | 0 kts | 277° |